Time;durP1;ratioP1;P1;durP2;ratioP2;P2;SDS_P1;SDS_P2;PMS_P1;PMS_P2;Temp;Humidity;BMP_temperature;BMP_pressure;BME280_temperature;BME280_humidity;BME280_pressure;Samples;Min_cycle;Max_cycle;Signal;HPM_P1;HPM_P2
2023/06/12 00:06:50;;;;;;;;;;;22.80;49.30;;;;;;20845163;28;20409;-57
2023/06/12 00:16:51;;;;;;;;;;;22.90;49.40;;;;;;20844954;28;19936;-57
2023/06/12 00:26:52;;;;;;;;;;;22.70;49.70;;;;;;20844313;28;19929;-57
2023/06/12 00:36:52;;;;;;;;;;;22.70;49.70;;;;;;20843737;28;20369;-58
2023/06/12 00:46:53;;;;;;;;;;;22.50;50.10;;;;;;20844431;28;20347;-57
2023/06/12 00:56:55;;;;;;;;;;;22.40;50.60;;;;;;20843465;28;19925;-58
2023/06/12 01:07:06;;;;;;;;;;;22.30;51.50;;;;;;20841568;28;20291;-57
2023/06/12 01:17:06;;;;;;;;;;;22.20;52.20;;;;;;20841818;28;19925;-58
2023/06/12 01:27:25;;;;;;;;;;;22.00;53.10;;;;;;20840066;28;19975;-58
2023/06/12 01:37:31;;;;;;;;;;;21.90;53.00;;;;;;20838861;28;19932;-57
2023/06/12 01:47:31;;;;;;;;;;;21.90;52.90;;;;;;20841097;28;20290;-57
2023/06/12 01:57:32;;;;;;;;;;;21.80;51.90;;;;;;20838625;28;19925;-58
2023/06/12 02:07:33;;;;;;;;;;;21.70;52.30;;;;;;20837969;28;19925;-57
2023/06/12 02:17:33;;;;;;;;;;;21.70;53.50;;;;;;20836319;28;19925;-57
2023/06/12 02:27:34;;;;;;;;;;;21.50;54.50;;;;;;20835009;28;19925;-57
2023/06/12 02:37:35;;;;;;;;;;;21.30;55.40;;;;;;20834084;28;19925;-56
2023/06/12 02:47:35;;;;;;;;;;;21.30;54.20;;;;;;20834514;28;19925;-57
2023/06/12 02:57:36;;;;;;;;;;;21.20;55.50;;;;;;20833658;28;19968;-57
2023/06/12 03:07:38;;;;;;;;;;;21.10;56.20;;;;;;20832872;28;19929;-57
2023/06/12 03:17:39;;;;;;;;;;;21.00;56.50;;;;;;20831268;28;19925;-57
2023/06/12 03:27:40;;;;;;;;;;;21.00;56.40;;;;;;20832126;28;19932;-57
2023/06/12 03:37:40;;;;;;;;;;;21.00;54.60;;;;;;20831186;28;20423;-56
2023/06/12 03:47:41;;;;;;;;;;;21.00;54.60;;;;;;20831246;28;19925;-57
2023/06/12 03:57:42;;;;;;;;;;;20.70;57.80;;;;;;20830866;28;20353;-58
2023/06/12 04:07:42;;;;;;;;;;;20.60;58.90;;;;;;20830071;28;20014;-58
2023/06/12 04:17:43;;;;;;;;;;;20.40;59.10;;;;;;20829793;28;19925;-57
2023/06/12 04:27:44;;;;;;;;;;;20.50;59.30;;;;;;20829095;28;20059;-58
2023/06/12 04:37:48;;;;;;;;;;;20.30;59.80;;;;;;20832567;28;20382;-57
2023/06/12 04:47:50;;;;;;;;;;;20.20;60.70;;;;;;20844018;28;19968;-57
2023/06/12 04:57:53;;;;;;;;;;;20.30;60.40;;;;;;20842934;28;19925;-57
2023/06/12 05:07:54;;;;;;;;;;;20.20;61.10;;;;;;20841103;28;20310;-58
2023/06/12 05:17:55;;;;;;;;;;;20.10;61.30;;;;;;20840740;28;19931;-57
2023/06/12 05:27:56;;;;;;;;;;;20.00;61.70;;;;;;20839588;28;19925;-58
2023/06/12 05:37:56;;;;;;;;;;;20.00;61.60;;;;;;20838644;28;19961;-57
2023/06/12 05:47:57;;;;;;;;;;;20.00;61.50;;;;;;20837428;28;19925;-57
2023/06/12 05:57:58;;;;;;;;;;;20.20;60.80;;;;;;20838188;28;19925;-57
2023/06/12 06:07:58;;;;;;;;;;;20.30;60.70;;;;;;20838018;28;19925;-57
2023/06/12 06:17:59;;;;;;;;;;;20.40;59.40;;;;;;20836289;28;19929;-58
2023/06/12 06:28:00;;;;;;;;;;;20.60;58.20;;;;;;20835908;28;19979;-57
2023/06/12 06:38:00;;;;;;;;;;;20.80;57.10;;;;;;20834919;28;19986;-59
2023/06/12 06:48:01;;;;;;;;;;;20.90;57.10;;;;;;20834498;28;19968;-57
2023/06/12 06:58:02;;;;;;;;;;;21.20;56.10;;;;;;20833595;28;19925;-58
2023/06/12 07:08:03;;;;;;;;;;;21.80;54.00;;;;;;20832400;28;19931;-58
2023/06/12 07:18:04;;;;;;;;;;;22.40;52.80;;;;;;20832641;28;19969;-58
2023/06/12 07:28:04;;;;;;;;;;;22.90;51.50;;;;;;20832415;28;20052;-58
2023/06/12 07:38:05;;;;;;;;;;;23.20;50.30;;;;;;20831200;28;19934;-57
2023/06/12 07:48:07;;;;;;;;;;;23.40;49.80;;;;;;20830898;28;20290;-57
2023/06/12 07:58:08;;;;;;;;;;;23.60;49.40;;;;;;20828439;28;19976;-57
2023/06/12 08:08:09;;;;;;;;;;;24.20;48.00;;;;;;20829568;28;19925;-57
2023/06/12 08:18:10;;;;;;;;;;;24.60;47.00;;;;;;20842911;28;20280;-57
2023/06/12 08:28:11;;;;;;;;;;;24.70;46.50;;;;;;20843846;28;20016;-58
2023/06/12 08:38:12;;;;;;;;;;;25.10;45.50;;;;;;20844149;28;19973;-58
2023/06/12 08:48:15;;;;;;;;;;;25.40;45.10;;;;;;20844155;28;19925;-57
2023/06/12 08:58:16;;;;;;;;;;;25.60;44.40;;;;;;20843304;28;20418;-58
2023/06/12 09:08:16;;;;;;;;;;;25.90;43.80;;;;;;20842457;28;19979;-58
2023/06/12 09:18:18;;;;;;;;;;;26.10;42.30;;;;;;20840805;28;20038;-58
2023/06/12 09:28:21;;;;;;;;;;;26.20;42.80;;;;;;20839391;28;19925;-58
2023/06/12 09:38:27;;;;;;;;;;;26.10;42.20;;;;;;20839911;28;19979;-58
2023/06/12 09:48:35;;;;;;;;;;;26.10;42.60;;;;;;20837829;28;19948;-58
2023/06/12 09:58:36;;;;;;;;;;;26.20;42.00;;;;;;20837061;28;20019;-59
2023/06/12 10:08:37;;;;;;;;;;;26.30;41.30;;;;;;20835604;28;20291;-57
2023/06/12 10:18:38;;;;;;;;;;;26.40;41.60;;;;;;20834494;28;19932;-59
2023/06/12 10:28:39;;;;;;;;;;;26.80;40.60;;;;;;20834971;28;19925;-58
2023/06/12 10:38:48;;;;;;;;;;;26.70;40.50;;;;;;20835014;28;19932;-56
2023/06/12 10:48:49;;;;;;;;;;;27.20;39.80;;;;;;20834793;28;19978;-58
2023/06/12 10:58:55;;;;;;;;;;;27.60;37.30;;;;;;20833543;28;19964;-58
2023/06/12 11:09:07;;;;;;;;;;;27.60;37.50;;;;;;20831644;28;19926;-60
2023/06/12 11:19:08;;;;;;;;;;;27.70;37.70;;;;;;20830908;28;19985;-56
2023/06/12 11:29:15;;;;;;;;;;;27.80;37.10;;;;;;20829977;28;20462;-59
2023/06/12 11:39:17;;;;;;;;;;;28.10;36.70;;;;;;20830577;28;19925;-58
2023/06/12 11:49:20;;;;;;;;;;;27.90;37.50;;;;;;20827149;28;19932;-60
2023/06/12 11:59:21;;;;;;;;;;;27.60;38.30;;;;;;20828937;28;19968;-62
2023/06/12 12:09:27;;;;;;;;;;;27.70;38.30;;;;;;20829680;28;19980;-58
2023/06/12 12:19:29;;;;;;;;;;;27.80;37.70;;;;;;20829835;28;19925;-57
2023/06/12 12:29:32;;;;;;;;;;;28.20;36.70;;;;;;20827831;28;19932;-56
2023/06/12 12:39:33;;;;;;;;;;;28.40;36.30;;;;;;20828448;28;19948;-56
2023/06/12 12:49:33;;;;;;;;;;;28.30;36.00;;;;;;20828315;28;19925;-57
2023/06/12 12:59:34;;;;;;;;;;;28.60;35.00;;;;;;20830256;28;19996;-56
2023/06/12 13:09:35;;;;;;;;;;;28.50;35.70;;;;;;20841027;28;19932;-57
2023/06/12 13:19:35;;;;;;;;;;;28.70;34.90;;;;;;20840132;28;20279;-56
2023/06/12 13:29:37;;;;;;;;;;;28.60;35.20;;;;;;20841743;28;20015;-60
2023/06/12 13:39:38;;;;;;;;;;;28.60;35.80;;;;;;20899823;28;19925;-57
2023/06/12 13:49:38;;;;;;;;;;;28.60;34.90;;;;;;20915403;28;19936;-57
2023/06/12 13:59:39;;;;;;;;;;;28.60;35.70;;;;;;20912483;28;19931;-56
2023/06/12 14:09:40;;;;;;;;;;;28.80;35.10;;;;;;20917313;28;19925;-56
2023/06/12 14:19:41;;;;;;;;;;;28.60;35.80;;;;;;20919693;28;19969;-57
2023/06/12 14:29:41;;;;;;;;;;;28.90;35.10;;;;;;20919570;28;20023;-57
2023/06/12 14:39:42;;;;;;;;;;;28.90;35.20;;;;;;20917944;28;19925;-58
2023/06/12 14:49:42;;;;;;;;;;;28.90;35.10;;;;;;20917012;28;20021;-57
2023/06/12 14:59:43;;;;;;;;;;;29.00;34.50;;;;;;20916704;28;20004;-57
2023/06/12 15:09:45;;;;;;;;;;;29.10;34.60;;;;;;20916147;28;19948;-56
2023/06/12 15:19:45;;;;;;;;;;;28.90;34.60;;;;;;20913326;28;19932;-56
2023/06/12 15:29:46;;;;;;;;;;;29.10;34.50;;;;;;20912886;28;19925;-56
2023/06/12 15:39:47;;;;;;;;;;;29.10;34.20;;;;;;20913839;28;19925;-57
2023/06/12 15:49:48;;;;;;;;;;;29.10;33.80;;;;;;20913314;28;19924;-57
2023/06/12 15:59:48;;;;;;;;;;;29.20;33.10;;;;;;20913051;28;19925;-58
2023/06/12 16:09:49;;;;;;;;;;;29.10;32.60;;;;;;20911440;28;19924;-60
2023/06/12 16:19:50;;;;;;;;;;;29.10;33.70;;;;;;20912575;28;20443;-61
2023/06/12 16:29:56;;;;;;;;;;;28.80;33.70;;;;;;20910899;28;19932;-61
2023/06/12 16:40:06;;;;;;;;;;;28.60;33.40;;;;;;20924225;28;19924;-61
2023/06/12 16:50:07;;;;;;;;;;;28.50;33.90;;;;;;20926550;28;19925;-62
2023/06/12 17:00:08;;;;;;;;;;;28.60;34.10;;;;;;20925429;28;19925;-62
2023/06/12 17:10:10;;;;;;;;;;;28.60;34.20;;;;;;20922738;28;19932;-62
2023/06/12 17:20:11;;;;;;;;;;;28.50;34.80;;;;;;20923251;28;19932;-62
2023/06/12 17:30:12;;;;;;;;;;;28.10;35.00;;;;;;20922596;28;20325;-63
2023/06/12 17:40:12;;;;;;;;;;;28.00;35.40;;;;;;20922463;28;19932;-62
2023/06/12 17:50:13;;;;;;;;;;;27.80;35.90;;;;;;20920735;28;20011;-60
2023/06/12 18:00:15;;;;;;;;;;;27.60;36.00;;;;;;20920178;28;19929;-61
2023/06/12 18:10:16;;;;;;;;;;;27.40;36.50;;;;;;20919708;28;19932;-64
2023/06/12 18:20:16;;;;;;;;;;;27.10;37.70;;;;;;20918987;28;19925;-62
2023/06/12 18:30:17;;;;;;;;;;;27.20;37.60;;;;;;20918771;28;20363;-63
2023/06/12 18:40:18;;;;;;;;;;;27.00;36.50;;;;;;20917472;28;19979;-62
2023/06/12 18:50:18;;;;;;;;;;;27.00;37.10;;;;;;20916837;28;19925;-59
2023/06/12 19:00:19;;;;;;;;;;;27.00;37.40;;;;;;20916167;28;19932;-59
2023/06/12 19:10:20;;;;;;;;;;;26.90;37.30;;;;;;20916010;28;20012;-60
2023/06/12 19:20:21;;;;;;;;;;;26.70;37.80;;;;;;20915217;28;19932;-60
2023/06/12 19:30:23;;;;;;;;;;;26.50;38.00;;;;;;20913262;28;19936;-58
2023/06/12 19:40:23;;;;;;;;;;;26.40;38.10;;;;;;20914336;28;20008;-59
2023/06/12 19:50:24;;;;;;;;;;;26.30;38.70;;;;;;20913632;28;20421;-60
2023/06/12 20:00:25;;;;;;;;;;;26.00;39.30;;;;;;20913603;28;19924;-61
2023/06/12 20:10:26;;;;;;;;;;;25.90;39.90;;;;;;20920177;28;20011;-59
2023/06/12 20:20:27;;;;;;;;;;;25.80;40.30;;;;;;20927665;28;19932;-59
2023/06/12 20:30:28;;;;;;;;;;;25.60;40.30;;;;;;20928493;28;19925;-59
2023/06/12 20:40:28;;;;;;;;;;;25.50;40.40;;;;;;20926477;28;19924;-59
2023/06/12 20:50:29;;;;;;;;;;;25.40;40.80;;;;;;20925378;28;20374;-57
2023/06/12 21:00:30;;;;;;;;;;;25.20;41.20;;;;;;20926211;28;20030;-59
2023/06/12 21:10:31;;;;;;;;;;;25.10;40.70;;;;;;20923622;28;20070;-59
2023/06/12 21:20:31;;;;;;;;;;;24.90;41.00;;;;;;20922873;28;19925;-60
2023/06/12 21:30:32;;;;;;;;;;;24.80;41.30;;;;;;20923634;28;20015;-59
2023/06/12 21:40:32;;;;;;;;;;;24.60;41.40;;;;;;20921600;28;19925;-58
2023/06/12 21:50:33;;;;;;;;;;;24.50;41.50;;;;;;20920432;28;19924;-58
2023/06/12 22:00:34;;;;;;;;;;;24.40;41.80;;;;;;20921382;28;20386;-59
2023/06/12 22:10:35;;;;;;;;;;;24.20;42.10;;;;;;20920141;28;19924;-58
2023/06/12 22:20:39;;;;;;;;;;;24.10;42.70;;;;;;20918381;28;19932;-57
2023/06/12 22:30:40;;;;;;;;;;;24.00;42.50;;;;;;20918676;28;19947;-58
2023/06/12 22:40:41;;;;;;;;;;;24.00;43.60;;;;;;20917369;28;19925;-59
2023/06/12 22:50:41;;;;;;;;;;;24.00;44.70;;;;;;20917118;28;20245;-59
2023/06/12 23:00:42;;;;;;;;;;;23.60;45.40;;;;;;20916833;28;19975;-58
2023/06/12 23:10:43;;;;;;;;;;;23.40;45.60;;;;;;20916246;28;19936;-58
2023/06/12 23:20:44;;;;;;;;;;;23.30;46.10;;;;;;20915464;28;20340;-58
2023/06/12 23:30:45;;;;;;;;;;;23.10;47.00;;;;;;20915220;28;19928;-58
2023/06/12 23:40:46;;;;;;;;;;;23.00;48.30;;;;;;20914257;28;19932;-58
2023/06/12 23:50:49;;;;;;;;;;;22.90;49.60;;;;;;20914058;28;19925;-57
